Time;durP1;ratioP1;P1;durP2;ratioP2;P2;SDS_P1;SDS_P2;PMS_P1;PMS_P2;Temp;Humidity;BMP_temperature;BMP_pressure;BME280_temperature;BME280_humidity;BME280_pressure;Samples;Min_cycle;Max_cycle;Signal;HPM_P1;HPM_P2
2023/02/02 00:01:46;;;;;;;4.55;1.05;;;;;;;7.39;70.40;100982.69;5052060;28;20069;-48
2023/02/02 00:04:17;;;;;;;9.07;0.98;;;;;;;7.37;71.13;100978.34;5056382;28;20077;-48
2023/02/02 00:06:44;;;;;;;4.18;0.82;;;;;;;7.35;69.79;100974.84;5044396;28;20045;-51
2023/02/02 00:09:14;;;;;;;4.28;0.80;;;;;;;7.31;70.42;100979.94;5049909;28;20049;-51
2023/02/02 00:11:43;;;;;;;3.25;0.60;;;;;;;7.27;70.08;100978.13;5044412;28;20152;-48
2023/02/02 00:14:10;;;;;;;7.13;0.95;;;;;;;7.24;70.51;100982.31;5040721;28;20578;-52
2023/02/02 00:16:40;;;;;;;4.68;0.68;;;;;;;7.22;70.56;100978.81;5044380;28;20516;-50
2023/02/02 00:19:10;;;;;;;5.65;1.00;;;;;;;7.19;70.84;100970.16;5064811;28;20076;-51
2023/02/02 00:21:37;;;;;;;4.60;1.38;;;;;;;7.15;70.33;100978.66;5043290;28;21218;-52
2023/02/02 00:24:07;;;;;;;3.67;0.75;;;;;;;7.15;70.37;100973.50;5044451;28;20540;-49
2023/02/02 00:26:34;;;;;;;6.82;0.85;;;;;;;7.11;70.84;100966.53;5057412;28;20733;-49
2023/02/02 00:29:02;;;;;;;5.88;0.70;;;;;;;7.09;70.82;100968.16;5042985;28;20083;-48
2023/02/02 00:31:29;;;;;;;3.60;0.43;;;;;;;7.06;70.31;100962.97;5044080;28;20106;-50
2023/02/02 00:33:55;;;;;;;6.60;1.42;;;;;;;7.05;71.49;100962.09;5042352;28;21576;-48
2023/02/02 00:36:22;;;;;;;7.95;1.17;;;;;;;7.05;71.91;100961.19;5040996;28;20094;-47
2023/02/02 00:38:50;;;;;;;7.85;1.02;;;;;;;7.03;71.44;100962.88;5041452;28;20148;-48
2023/02/02 00:41:16;;;;;;;5.00;1.00;;;;;;;7.01;71.55;100964.53;5040943;28;20053;-49
2023/02/02 00:43:43;;;;;;;4.50;0.70;;;;;;;7.01;72.05;100959.38;5040634;28;20579;-50
2023/02/02 00:46:15;;;;;;;5.13;0.57;;;;;;;7.00;70.70;100949.91;5042547;28;20061;-48
2023/02/02 00:48:42;;;;;;;3.33;0.82;;;;;;;6.99;71.78;100940.44;5041949;28;20144;-48
2023/02/02 00:51:09;;;;;;;3.97;1.20;;;;;;;6.99;71.50;100951.59;5055598;28;20080;-49
2023/02/02 00:53:35;;;;;;;3.20;0.40;;;;;;;6.99;70.88;100940.44;5041664;28;20932;-49
2023/02/02 00:56:02;;;;;;;4.93;0.60;;;;;;;6.98;71.31;100948.97;5043428;28;20045;-47
2023/02/02 00:58:29;;;;;;;11.35;1.35;;;;;;;6.97;71.47;100947.25;5042148;28;20064;-52
2023/02/02 01:00:56;;;;;;;7.03;0.63;;;;;;;6.98;70.49;100948.97;5050197;28;20087;-49
2023/02/02 01:03:22;;;;;;;4.50;0.73;;;;;;;6.93;72.10;100947.16;5040545;28;20037;-51
2023/02/02 01:05:50;;;;;;;5.22;0.63;;;;;;;6.92;72.19;100950.56;5040020;28;20130;-49
2023/02/02 01:08:17;;;;;;;3.50;0.93;;;;;;;6.94;72.53;100948.03;5033208;28;20048;-51
2023/02/02 01:10:44;;;;;;;3.03;0.80;;;;;;;6.92;72.00;100935.13;5040888;28;20052;-48
2023/02/02 01:13:10;;;;;;;3.90;0.32;;;;;;;6.97;71.70;100936.94;5033893;28;20056;-48
2023/02/02 01:15:37;;;;;;;4.05;0.43;;;;;;;6.97;71.99;100931.78;5039379;28;20073;-49
2023/02/02 01:18:03;;;;;;;3.10;1.58;;;;;;;7.03;71.72;100937.13;5044154;28;20095;-50
2023/02/02 01:20:31;;;;;;;6.82;0.90;;;;;;;7.09;71.88;100931.25;5042548;28;20055;-49
2023/02/02 01:22:57;;;;;;;4.90;0.68;;;;;;;7.12;72.14;100934.78;5041843;28;20072;-48
2023/02/02 01:25:24;;;;;;;3.78;0.68;;;;;;;7.15;71.84;100939.13;5037380;28;21124;-50
2023/02/02 01:27:51;;;;;;;2.22;0.68;;;;;;;7.20;72.19;100929.81;5034317;28;20053;-47
2023/02/02 01:30:17;;;;;;;7.88;0.95;;;;;;;7.27;72.70;100930.84;5036280;28;20072;-48
2023/02/02 01:32:44;;;;;;;2.72;0.85;;;;;;;7.30;72.53;100938.66;5039972;28;20128;-51
2023/02/02 01:35:11;;;;;;;4.63;1.02;;;;;;;7.34;72.55;100935.31;5040935;28;20061;-48
2023/02/02 01:37:38;;;;;;;8.38;0.90;;;;;;;7.36;72.03;100941.38;5037787;28;20061;-49
2023/02/02 01:40:05;;;;;;;5.20;0.77;;;;;;;7.41;72.60;100942.38;5057404;28;20548;-50
2023/02/02 01:42:32;;;;;;;3.42;0.70;;;;;;;7.40;71.49;100940.59;5042813;28;20094;-49
2023/02/02 01:47:50;;;;;;;5.47;0.65;;;;;;;7.43;71.85;100947.56;5060479;27;20412;-49
2023/02/02 01:50:20;;;;;;;4.03;1.02;;;;;;;7.46;72.50;100943.34;5026501;28;20080;-50
2023/02/02 01:52:49;;;;;;;4.07;1.00;;;;;;;7.48;72.43;100950.25;5028228;28;20077;-50
2023/02/02 01:55:22;;;;;;;2.08;0.57;;;;;;;7.49;72.45;100952.00;5021421;28;20733;-52
2023/02/02 01:57:56;;;;;;;2.17;0.60;;;;;;;7.52;71.28;100952.94;5039882;28;20074;-48
2023/02/02 02:00:26;;;;;;;4.90;1.27;;;;;;;7.54;72.89;100961.56;5035730;28;20049;-48
2023/02/02 02:02:59;;;;;;;7.18;1.20;;;;;;;7.56;72.46;100966.75;5028349;28;20130;-51
2023/02/02 02:05:30;;;;;;;5.38;1.27;;;;;;;7.58;71.26;100981.47;5034283;28;20081;-50
2023/02/02 02:08:07;;;;;;;6.30;0.45;;;;;;;7.61;71.14;100978.09;5036348;28;20611;-48
2023/02/02 02:10:33;;;;;;;5.13;1.23;;;;;;;7.63;71.41;100991.88;5036363;28;20057;-48
2023/02/02 02:13:00;;;;;;;3.10;0.90;;;;;;;7.66;71.12;100991.94;5039080;28;20727;-49
2023/02/02 02:18:33;;;;;;;6.50;0.60;;;;;;;7.68;71.82;100995.44;5041712;28;20644;-47
2023/02/02 02:27:02;;;;;;;9.13;1.48;;;;;;;7.70;71.41;100988.59;5065557;27;20391;-47
2023/02/02 02:30:09;;;;;;;3.30;0.50;;;;;;;7.69;71.10;100989.44;5055509;28;20072;-50
2023/02/02 02:35:41;;;;;;;6.40;1.15;;;;;;;7.66;71.32;100986.78;5035665;28;20401;-48
2023/02/02 02:38:47;;;;;;;9.88;1.88;;;;;;;7.62;71.23;100990.13;5015636;28;20091;-49
2023/02/02 02:41:21;;;;;;;1.98;1.30;;;;;;;7.63;70.72;100981.56;5012370;28;20076;-48
2023/02/02 02:43:55;;;;;;;7.28;1.88;;;;;;;7.64;71.40;100983.31;5029425;28;20076;-51
2023/02/02 02:46:22;;;;;;;4.82;1.55;;;;;;;7.66;71.54;100985.91;5015057;28;20101;-48
2023/02/02 02:48:49;;;;;;;3.83;1.70;;;;;;;7.65;71.04;100972.16;5013567;28;20053;-48
2023/02/02 02:54:20;;;;;;;2.97;1.65;;;;;;;7.64;71.15;100985.00;5010632;27;20417;-48
2023/02/02 03:07:28;;;;;;;5.35;0.52;;;;;;;7.55;71.66;100977.91;5039195;28;20386;-49
2023/02/02 03:09:56;;;;;;;4.63;0.65;;;;;;;7.50;71.94;100984.69;5021594;28;20108;-51
2023/02/02 03:12:23;;;;;;;8.52;1.17;;;;;;;7.46;71.00;100974.28;5016388;28;20096;-49
2023/02/02 03:14:50;;;;;;;5.45;1.00;;;;;;;7.44;71.35;100985.41;5020666;28;20126;-51
2023/02/02 03:17:16;;;;;;;7.00;0.70;;;;;;;7.41;71.97;100975.88;5021888;28;20108;-49
2023/02/02 03:19:43;;;;;;;5.43;0.68;;;;;;;7.37;71.01;100963.75;5015246;28;20126;-47
2023/02/02 03:22:09;;;;;;;8.52;1.15;;;;;;;7.36;71.19;100956.84;5016823;28;20064;-49
2023/02/02 03:24:36;;;;;;;5.25;1.45;;;;;;;7.35;71.66;100960.25;5019857;28;20161;-48
2023/02/02 03:27:03;;;;;;;6.93;1.08;;;;;;;7.32;72.45;100965.31;5016884;28;20053;-51
2023/02/02 03:29:30;;;;;;;2.00;0.60;;;;;;;7.27;72.64;100959.19;5018076;28;20532;-49
2023/02/02 03:31:56;;;;;;;6.20;0.95;;;;;;;7.29;72.21;100950.66;5017141;28;20141;-48
2023/02/02 03:34:23;;;;;;;7.18;1.17;;;;;;;7.28;72.09;100956.66;5018100;28;20108;-48
2023/02/02 03:36:49;;;;;;;5.00;0.85;;;;;;;7.26;72.36;100955.72;5016511;28;20053;-49
2023/02/02 03:39:16;;;;;;;2.60;0.60;;;;;;;7.26;72.60;100954.88;5012958;28;20359;-51
2023/02/02 03:41:43;;;;;;;5.35;0.80;;;;;;;7.23;71.33;100959.94;5015562;28;20133;-49
2023/02/02 03:44:09;;;;;;;4.95;0.93;;;;;;;7.22;71.54;100960.78;5020533;28;20752;-49
2023/02/02 03:46:36;;;;;;;4.28;0.60;;;;;;;7.19;72.28;100954.72;5024643;28;20152;-48
2023/02/02 03:49:02;;;;;;;5.25;0.90;;;;;;;7.14;72.28;100947.69;5017548;28;20060;-49
2023/02/02 03:51:29;;;;;;;4.85;0.90;;;;;;;7.15;72.86;100947.72;4997254;28;20085;-47
2023/02/02 03:53:55;;;;;;;4.82;0.73;;;;;;;7.16;71.82;100949.47;5013790;28;20153;-49
2023/02/02 03:56:22;;;;;;;3.97;0.73;;;;;;;7.16;71.95;100953.78;5017921;28;20243;-52
2023/02/02 03:58:49;;;;;;;2.20;0.77;;;;;;;7.15;71.54;100946.84;5020725;28;20076;-48
2023/02/02 04:01:15;;;;;;;4.60;1.17;;;;;;;7.15;71.82;100952.88;5010423;28;20085;-47
2023/02/02 04:03:42;;;;;;;3.17;0.68;;;;;;;7.14;71.09;100966.59;5018959;28;20045;-47
2023/02/02 04:06:09;;;;;;;4.45;0.43;;;;;;;7.11;71.43;100945.03;5018306;28;21148;-49
2023/02/02 04:08:35;;;;;;;3.70;0.77;;;;;;;7.11;72.58;100948.50;5019242;28;20976;-50
2023/02/02 04:11:02;;;;;;;5.22;1.80;;;;;;;7.11;72.16;100961.38;5011290;28;20097;-48
2023/02/02 04:13:29;;;;;;;1.70;0.45;;;;;;;7.06;72.15;100962.97;5016279;28;20064;-50
2023/02/02 04:15:59;;;;;;;9.27;0.98;;;;;;;7.07;71.22;100969.84;5020304;28;20550;-48
2023/02/02 04:18:26;;;;;;;4.47;1.40;;;;;;;7.05;71.23;100967.22;5003944;28;20072;-50
2023/02/02 04:21:01;;;;;;;6.20;0.90;;;;;;;7.02;72.12;100962.00;5005620;28;20552;-48
2023/02/02 04:23:28;;;;;;;3.17;0.68;;;;;;;7.02;72.41;100959.41;5035167;28;20050;-51
2023/02/02 04:25:56;;;;;;;7.95;1.20;;;;;;;7.00;72.73;100947.34;5004272;28;20092;-50
2023/02/02 04:28:23;;;;;;;4.53;0.98;;;;;;;6.98;71.47;100948.97;5006771;28;20591;-50
2023/02/02 04:30:51;;;;;;;3.78;0.65;;;;;;;6.96;72.59;100948.09;5003928;28;20104;-47
2023/02/02 04:33:20;;;;;;;10.52;1.17;;;;;;;6.94;72.90;100943.78;5010559;28;20089;-49
2023/02/02 04:35:46;;;;;;;2.85;0.45;;;;;;;6.91;71.60;100941.09;5005764;28;20045;-50
2023/02/02 04:38:13;;;;;;;1.95;0.73;;;;;;;6.91;72.87;100942.81;5002322;28;20061;-49
2023/02/02 04:40:41;;;;;;;3.78;1.00;;;;;;;6.89;72.48;100942.75;5000177;28;20124;-48
2023/02/02 04:43:08;;;;;;;4.57;1.40;;;;;;;6.83;72.79;100945.19;5001362;28;20136;-48
2023/02/02 04:45:35;;;;;;;6.35;1.10;;;;;;;6.87;72.54;100934.13;5002569;28;20448;-49
2023/02/02 04:48:03;;;;;;;3.60;0.82;;;;;;;6.85;73.44;100940.09;5001649;28;20057;-48
2023/02/02 04:50:30;;;;;;;2.40;0.75;;;;;;;6.85;72.37;100953.81;5032625;28;20729;-48
2023/02/02 04:52:57;;;;;;;6.60;0.57;;;;;;;6.83;72.31;100952.91;4996559;28;20648;-48
2023/02/02 04:55:23;;;;;;;2.72;0.75;;;;;;;6.80;72.71;100955.41;5000091;28;20753;-49
2023/02/02 04:57:50;;;;;;;7.38;0.73;;;;;;;6.79;72.22;100948.50;4997784;28;20147;-48
2023/02/02 05:00:17;;;;;;;3.72;0.43;;;;;;;6.77;73.40;100948.47;4998907;28;20107;-48
2023/02/02 05:02:44;;;;;;;5.00;1.10;;;;;;;6.76;71.89;100958.72;4999568;28;20085;-46
2023/02/02 05:05:13;;;;;;;4.38;0.60;;;;;;;6.75;73.13;100956.97;5001973;28;20057;-49
2023/02/02 05:07:40;;;;;;;3.20;0.80;;;;;;;6.72;72.50;100962.91;5031262;28;20133;-48
2023/02/02 05:10:08;;;;;;;3.38;0.65;;;;;;;6.72;71.85;100956.91;5030502;28;20046;-48
2023/02/02 05:12:35;;;;;;;4.85;0.50;;;;;;;6.68;72.78;100950.78;4996118;28;20053;-50
2023/02/02 05:15:04;;;;;;;3.22;1.00;;;;;;;6.68;73.52;100951.66;4998372;28;20045;-49
2023/02/02 05:17:31;;;;;;;3.30;0.80;;;;;;;6.69;72.08;100953.38;5032883;28;20050;-48
2023/02/02 05:19:58;;;;;;;4.35;1.27;;;;;;;6.70;73.53;100951.69;5003714;28;20112;-51
2023/02/02 05:22:24;;;;;;;5.72;0.98;;;;;;;6.71;73.66;100947.41;5004290;28;20152;-51
2023/02/02 05:24:51;;;;;;;4.55;0.98;;;;;;;6.71;73.02;100944.81;5003554;28;20050;-49
2023/02/02 05:27:17;;;;;;;4.55;0.55;;;;;;;6.67;73.18;100949.91;4997408;28;20491;-50
2023/02/02 05:29:46;;;;;;;6.45;2.17;;;;;;;6.68;72.71;100951.66;5002206;28;20088;-46
2023/02/02 05:32:13;;;;;;;7.03;0.88;;;;;;;6.74;73.48;100942.34;4997968;28;20050;-50
2023/02/02 05:34:39;;;;;;;2.22;0.68;;;;;;;6.75;73.74;100944.09;4995995;28;20510;-50
2023/02/02 05:37:06;;;;;;;3.55;0.80;;;;;;;6.76;73.60;100948.41;5004799;28;20119;-49
2023/02/02 05:39:32;;;;;;;5.93;0.70;;;;;;;6.77;74.38;100955.31;5001220;28;20050;-48
2023/02/02 05:41:59;;;;;;;5.72;1.50;;;;;;;6.78;72.91;100963.06;5001924;28;20265;-50
2023/02/02 05:44:26;;;;;;;2.22;0.50;;;;;;;6.82;74.09;100969.16;4997534;28;20081;-50
2023/02/02 05:46:52;;;;;;;1.50;0.52;;;;;;;6.80;73.82;100970.84;5001459;28;20050;-48
2023/02/02 05:49:19;;;;;;;2.40;1.13;;;;;;;6.82;72.97;100985.50;4999009;28;20076;-48
2023/02/02 05:51:49;;;;;;;4.07;0.70;;;;;;;6.86;73.08;100986.44;5001491;28;20050;-50
2023/02/02 05:54:19;;;;;;;3.88;0.65;;;;;;;6.87;73.58;100993.38;4996202;28;20822;-50
2023/02/02 05:56:47;;;;;;;2.88;1.13;;;;;;;6.90;74.50;100983.16;5006458;28;20049;-49
2023/02/02 05:59:14;;;;;;;3.22;0.75;;;;;;;6.93;74.29;100992.66;4999085;28;20099;-49
2023/02/02 06:01:40;;;;;;;8.05;1.17;;;;;;;6.97;73.85;100993.59;4996300;28;20052;-49
2023/02/02 06:04:07;;;;;;;6.18;1.00;;;;;;;6.98;73.56;100985.94;4994477;28;20658;-48
2023/02/02 06:06:34;;;;;;;5.47;1.27;;;;;;;7.00;74.10;100984.28;5003555;28;20056;-49
2023/02/02 06:09:01;;;;;;;5.70;0.55;;;;;;;7.01;74.09;100980.88;5002505;28;20045;-49
2023/02/02 06:11:28;;;;;;;5.78;1.92;;;;;;;7.00;72.75;100979.13;5001743;28;20069;-50
2023/02/02 06:13:55;;;;;;;3.00;1.15;;;;;;;6.98;72.99;100985.94;4998740;28;20100;-48
2023/02/02 06:16:22;;;;;;;7.18;1.13;;;;;;;6.98;73.94;100987.63;5032851;28;20045;-49
2023/02/02 06:18:48;;;;;;;4.57;0.75;;;;;;;6.96;73.33;100984.16;5000685;28;20749;-48
2023/02/02 06:21:16;;;;;;;2.47;0.93;;;;;;;6.96;74.46;100984.16;5001412;28;20077;-48
2023/02/02 06:23:44;;;;;;;3.60;1.08;;;;;;;6.94;73.61;100984.97;5003613;28;20057;-49
2023/02/02 06:26:12;;;;;;;4.15;1.02;;;;;;;6.98;74.31;100985.03;4995864;28;20081;-48
2023/02/02 06:28:39;;;;;;;1.45;0.93;;;;;;;6.99;73.32;100981.66;5022495;28;20077;-48
2023/02/02 06:31:08;;;;;;;3.25;0.85;;;;;;;7.01;74.39;100995.44;5001227;28;20137;-48
2023/02/02 06:33:36;;;;;;;1.80;0.75;;;;;;;7.00;73.45;100992.00;5006222;28;20061;-48
2023/02/02 06:36:05;;;;;;;1.33;1.00;;;;;;;7.01;73.97;101000.59;5029141;28;20124;-49
2023/02/02 06:38:32;;;;;;;1.90;0.63;;;;;;;7.01;74.67;100995.44;4998292;28;20096;-47
2023/02/02 06:41:00;;;;;;;2.13;0.77;;;;;;;7.01;73.79;101003.16;5000766;28;20431;-49
2023/02/02 06:43:27;;;;;;;5.30;0.68;;;;;;;6.99;73.60;101000.53;5000070;28;20053;-50
2023/02/02 06:45:56;;;;;;;1.05;0.70;;;;;;;7.01;73.69;101005.75;4994199;28;20061;-49
2023/02/02 06:48:23;;;;;;;3.50;0.82;;;;;;;7.01;74.39;101001.47;5011508;28;20050;-47
2023/02/02 06:50:50;;;;;;;4.25;0.30;;;;;;;7.00;74.39;100999.72;4994912;28;20100;-48
2023/02/02 06:53:21;;;;;;;4.18;1.08;;;;;;;7.01;73.28;100993.75;4997792;28;20141;-48
2023/02/02 06:56:01;;;;;;;2.35;0.55;;;;;;;7.03;74.59;101007.53;4999729;28;20136;-48
2023/02/02 06:58:29;;;;;;;3.80;0.95;;;;;;;7.04;74.61;101005.81;5033299;28;20132;-50
2023/02/02 07:01:03;;;;;;;2.15;0.75;;;;;;;7.06;73.40;101014.50;4994099;28;20452;-50
2023/02/02 07:03:29;;;;;;;2.45;0.75;;;;;;;7.09;73.56;101016.28;4996798;28;20065;-50
2023/02/02 07:05:56;;;;;;;1.40;0.95;;;;;;;7.10;74.89;101016.31;4996486;28;20057;-48
2023/02/02 07:08:23;;;;;;;6.30;0.75;;;;;;;7.11;74.53;101019.75;4995593;28;20050;-49
2023/02/02 07:10:49;;;;;;;3.13;0.73;;;;;;;7.13;73.79;101011.22;4999944;28;20076;-49
2023/02/02 07:13:36;;;;;;;2.55;0.85;;;;;;;7.13;74.86;101016.38;4996758;28;20056;-47
2023/02/02 07:16:04;;;;;;;2.15;0.80;;;;;;;7.15;73.73;101014.72;4995580;28;20049;-49
2023/02/02 07:18:31;;;;;;;2.03;0.63;;;;;;;7.17;75.11;101018.19;5004545;28;20057;-49
2023/02/02 07:20:59;;;;;;;6.60;0.65;;;;;;;7.18;73.75;101014.81;5035631;28;20137;-48
2023/02/02 07:23:27;;;;;;;1.80;0.68;;;;;;;7.20;74.76;101028.59;4996444;28;20664;-49
2023/02/02 07:28:37;;;;;;;5.72;0.55;;;;;;;7.21;74.78;101029.47;5026712;28;20414;-48
2023/02/02 07:31:19;;;;;;;3.65;0.93;;;;;;;7.19;75.24;101025.97;4993698;28;20617;-48
2023/02/02 07:33:47;;;;;;;1.38;0.55;;;;;;;7.24;73.93;101037.28;5021250;28;20141;-51
2023/02/02 07:36:18;;;;;;;1.05;0.60;;;;;;;7.20;75.84;101026.00;4991289;28;20144;-48
2023/02/02 07:38:47;;;;;;;2.08;0.40;;;;;;;7.25;75.07;101030.41;4989203;28;20164;-50
2023/02/02 07:41:15;;;;;;;2.63;1.10;;;;;;;7.26;74.01;101035.63;4990063;28;20096;-50
2023/02/02 07:43:42;;;;;;;1.65;0.68;;;;;;;7.27;75.47;101033.91;4981318;28;20055;-52
2023/02/02 07:46:11;;;;;;;1.67;0.40;;;;;;;7.28;74.41;101026.22;4989842;28;20054;-49
2023/02/02 07:48:39;;;;;;;3.78;0.45;;;;;;;7.28;74.70;101025.34;4992795;28;20494;-49
2023/02/02 07:51:10;;;;;;;1.30;0.50;;;;;;;7.28;75.36;101018.50;4988980;28;20152;-51
2023/02/02 07:53:36;;;;;;;1.25;0.52;;;;;;;7.33;75.04;101018.63;4982803;28;20046;-48
2023/02/02 07:56:09;;;;;;;2.22;0.38;;;;;;;7.34;75.98;101017.78;4983585;28;20055;-50
2023/02/02 07:58:36;;;;;;;2.80;1.50;;;;;;;7.37;75.23;101012.72;4965489;28;20885;-47
2023/02/02 08:01:04;;;;;;;5.47;0.60;;;;;;;7.38;75.14;101011.88;4994558;28;20418;-48
2023/02/02 08:03:31;;;;;;;3.92;0.75;;;;;;;7.39;74.79;101012.75;4992132;28;20042;-49
2023/02/02 08:05:58;;;;;;;3.35;0.60;;;;;;;7.39;75.17;101008.47;4985221;28;20046;-50
2023/02/02 08:08:25;;;;;;;3.17;0.70;;;;;;;7.42;74.72;101021.44;4983483;28;20101;-49
2023/02/02 08:10:53;;;;;;;1.00;0.63;;;;;;;7.43;75.58;101018.03;4981336;28;20961;-48
2023/02/02 08:13:19;;;;;;;1.02;0.82;;;;;;;7.45;75.39;101018.06;4988152;28;20921;-49
2023/02/02 08:15:46;;;;;;;1.65;0.43;;;;;;;7.47;75.01;101021.56;4988929;28;20548;-51
2023/02/02 08:18:13;;;;;;;1.90;0.60;;;;;;;7.51;74.96;101012.19;4989885;28;20042;-49
2023/02/02 08:20:39;;;;;;;3.17;0.88;;;;;;;7.52;75.13;101013.94;4987473;28;20078;-48
2023/02/02 08:23:12;;;;;;;1.98;0.47;;;;;;;7.58;76.14;101019.25;4983129;28;20085;-48
2023/02/02 08:25:39;;;;;;;3.88;0.80;;;;;;;7.63;74.93;101022.81;4985088;28;20148;-52
2023/02/02 08:28:05;;;;;;;4.38;0.50;;;;;;;7.68;75.35;101021.25;4982663;28;20046;-49
2023/02/02 08:30:34;;;;;;;4.95;0.70;;;;;;;7.77;76.12;101024.88;4983632;28;20055;-50
2023/02/02 08:33:00;;;;;;;1.63;0.55;;;;;;;7.83;75.15;101030.16;4985631;28;20112;-48
2023/02/02 08:35:27;;;;;;;1.45;0.38;;;;;;;7.92;75.65;101034.69;4987004;28;20143;-50
2023/02/02 08:37:53;;;;;;;2.65;0.22;;;;;;;7.99;75.34;101031.41;4993996;28;20058;-48
2023/02/02 08:40:20;;;;;;;3.40;0.65;;;;;;;8.06;76.00;101035.00;4977599;28;20077;-51
2023/02/02 08:42:52;;;;;;;0.80;0.22;;;;;;;8.17;75.94;101030.13;4979304;28;20065;-48
2023/02/02 08:45:20;;;;;;;4.47;0.35;;;;;;;8.27;74.86;101026.03;4977893;28;20157;-50
2023/02/02 08:48:07;;;;;;;2.25;0.30;;;;;;;8.72;75.75;101035.63;4982145;28;20062;-48
2023/02/02 08:50:38;;;;;;;2.53;0.52;;;;;;;9.40;75.05;101032.63;4980283;28;20092;-51
2023/02/02 08:53:04;;;;;;;3.78;0.20;;;;;;;9.95;73.76;101039.56;4981056;28;20046;-51
2023/02/02 08:55:31;;;;;;;0.60;0.45;;;;;;;10.46;73.57;101036.00;4978938;28;20055;-49
2023/02/02 08:57:58;;;;;;;1.90;0.57;;;;;;;10.96;73.11;101037.50;4975066;28;20058;-53
2023/02/02 09:00:24;;;;;;;1.25;0.47;;;;;;;11.36;71.12;101046.56;4974986;28;20078;-52
2023/02/02 09:02:51;;;;;;;1.83;0.65;;;;;;;11.62;70.68;101053.75;4978244;28;20140;-49
2023/02/02 09:05:17;;;;;;;2.42;0.77;;;;;;;11.87;70.64;101065.22;4984486;28;20054;-49
2023/02/02 09:07:45;;;;;;;2.80;0.40;;;;;;;12.22;68.36;101061.16;4979894;28;20090;-53
2023/02/02 09:10:12;;;;;;;2.05;0.40;;;;;;;12.50;68.52;101058.72;4975885;28;20117;-52
2023/02/02 09:12:38;;;;;;;2.63;0.52;;;;;;;13.01;67.47;101054.63;4979164;28;20050;-51
2023/02/02 09:15:05;;;;;;;2.65;0.70;;;;;;;13.46;66.83;101067.75;4978274;28;20397;-51
2023/02/02 09:17:32;;;;;;;2.45;0.68;;;;;;;13.57;65.38;101068.66;4980300;28;20141;-50
2023/02/02 09:19:58;;;;;;;0.90;0.30;;;;;;;13.55;65.30;101074.72;4979445;28;20100;-50
2023/02/02 09:22:25;;;;;;;5.03;0.47;;;;;;;13.56;64.15;101069.53;4975767;28;20055;-50
2023/02/02 09:24:54;;;;;;;1.50;0.50;;;;;;;13.80;64.37;101070.41;4980327;28;20414;-50
2023/02/02 09:27:20;;;;;;;1.63;0.38;;;;;;;14.13;64.11;101068.69;4972328;28;20133;-51
2023/02/02 09:29:47;;;;;;;2.60;0.45;;;;;;;14.43;63.27;101070.34;4982201;28;20058;-51
2023/02/02 09:32:14;;;;;;;2.05;0.30;;;;;;;14.64;62.76;101075.50;4980143;28;20054;-49
2023/02/02 09:34:41;;;;;;;1.58;0.47;;;;;;;14.80;62.50;101075.50;4981123;28;20069;-50
2023/02/02 09:37:07;;;;;;;3.10;0.57;;;;;;;14.90;62.08;101071.94;4983048;28;20104;-50
2023/02/02 09:39:34;;;;;;;2.00;0.57;;;;;;;14.93;61.69;101078.03;4977005;28;20135;-50
2023/02/02 09:52:41;;;;;;;3.72;1.05;;;;;;;13.66;62.52;101072.13;5036115;28;20727;-48
2023/02/02 09:57:51;;;;;;;3.17;2.17;;;;;;;14.25;62.73;101072.97;5033790;28;20389;-49
2023/02/02 10:03:09;;;;;;;4.55;1.02;;;;;;;15.16;61.57;101073.56;5043108;27;20401;-49
2023/02/02 10:05:49;;;;;;;3.05;0.60;;;;;;;15.58;60.57;101068.97;5044770;28;20144;-48
2023/02/02 10:08:25;;;;;;;2.85;0.65;;;;;;;15.77;59.35;101067.94;5065143;28;21629;-51
2023/02/02 10:11:07;;;;;;;2.30;0.90;;;;;;;15.80;60.22;101073.16;5072896;28;20045;-51
2023/02/02 10:13:38;;;;;;;1.55;0.45;;;;;;;15.96;59.39;101064.34;5076537;28;20664;-49
2023/02/02 10:16:15;;;;;;;1.55;0.50;;;;;;;16.13;59.46;101075.50;5076319;28;20044;-51
2023/02/02 10:23:57;;;;;;;1.13;0.82;;;;;;;16.68;57.75;101078.41;5018845;27;20395;-51
2023/02/02 10:32:29;;;;;;;3.67;1.95;;;;;;;16.05;58.21;101096.47;5034156;28;20402;-52
2023/02/02 10:45:55;;;;;;;3.92;0.75;;;;;;;14.69;60.58;101113.75;5047509;28;20910;-51
2023/02/02 10:48:31;;;;;;;1.98;0.68;;;;;;;14.74;60.48;101104.16;4995134;28;20505;-52
2023/02/02 10:51:01;;;;;;;3.88;0.70;;;;;;;14.89;60.12;101105.84;4992847;28;20054;-50
2023/02/02 10:53:29;;;;;;;;;;;;;;;14.84;60.56;101105.91;4998370;28;20050;-52
2023/02/02 10:56:01;;;;;;;3.80;1.00;;;;;;;14.95;60.28;101105.84;4993997;28;19953;-50
2023/02/02 10:58:43;;;;;;;1.05;0.50;;;;;;;14.99;60.42;101098.88;4995230;28;20058;-53
2023/02/02 11:01:10;;;;;;;2.38;0.77;;;;;;;15.02;60.30;101106.69;4991044;28;20104;-51
2023/02/02 11:03:38;;;;;;;1.98;0.70;;;;;;;14.93;60.78;101101.50;4987655;28;20145;-49
2023/02/02 11:09:03;;;;;;;1.10;0.57;;;;;;;14.71;60.64;101096.34;4979496;28;20560;-52
2023/02/02 11:11:51;;;;;;;1.75;1.00;;;;;;;14.61;61.00;101096.38;4994855;28;20050;-52
2023/02/02 11:14:29;;;;;;;3.17;0.90;;;;;;;14.47;60.66;101087.72;4999304;28;20058;-53
2023/02/02 11:17:01;;;;;;;2.80;0.30;;;;;;;14.30;60.99;101096.44;4992106;28;20065;-50
2023/02/02 11:19:31;;;;;;;1.15;0.30;;;;;;;14.19;61.41;101099.03;4995003;28;20054;-48
2023/02/02 11:22:00;;;;;;;3.75;0.65;;;;;;;14.06;61.50;101087.78;4994008;28;20476;-52
2023/02/02 11:24:43;;;;;;;1.35;0.70;;;;;;;13.96;61.40;101091.25;4995039;28;20066;-52
2023/02/02 11:27:16;;;;;;;1.92;0.93;;;;;;;13.81;61.71;101087.75;4991978;28;20051;-54
2023/02/02 11:29:46;;;;;;;1.73;0.90;;;;;;;13.72;62.27;101083.41;4986406;28;20533;-51
2023/02/02 11:32:31;;;;;;;2.03;0.63;;;;;;;13.59;62.58;101077.34;4994850;28;20848;-53
2023/02/02 11:37:50;;;;;;;2.75;1.05;;;;;;;13.53;62.71;101079.94;5027993;28;20463;-50
2023/02/02 11:40:27;;;;;;;1.38;0.82;;;;;;;13.40;63.21;101081.59;4989639;28;20073;-50
2023/02/02 11:42:56;;;;;;;3.65;0.32;;;;;;;13.33;63.41;101079.84;5017799;28;20049;-53
2023/02/02 11:45:33;;;;;;;1.52;0.80;;;;;;;13.21;63.06;101081.56;4985427;28;20501;-50
2023/02/02 11:48:05;;;;;;;2.00;1.00;;;;;;;13.17;63.77;101078.97;4999138;28;20051;-52
2023/02/02 11:50:33;;;;;;;2.00;0.68;;;;;;;13.11;64.28;101072.84;4987687;28;20047;-55
2023/02/02 11:52:59;;;;;;;2.78;0.57;;;;;;;13.03;63.82;101071.13;4985554;28;20042;-51
2023/02/02 11:55:29;;;;;;;1.58;0.60;;;;;;;12.96;64.39;101070.19;4983734;28;20050;-53
2023/02/02 12:00:58;;;;;;;3.08;1.00;;;;;;;12.79;64.47;101063.22;5064850;27;20406;-53
2023/02/02 12:06:32;;;;;;;1.92;0.65;;;;;;;12.72;64.04;101066.63;5031964;28;20402;-53
2023/02/02 12:09:01;;;;;;;2.42;0.88;;;;;;;12.76;63.80;101068.38;5020434;28;20049;-51
2023/02/02 12:24:59;;;;;;;3.33;1.83;;;;;;;12.75;64.87;101061.47;5075832;27;20414;-53
2023/02/02 12:30:25;;;;;;;0.95;0.60;;;;;;;12.54;65.29;101054.44;5074896;27;20787;-52
2023/02/02 12:43:59;;;;;;;2.92;1.35;;;;;;;12.33;64.37;101033.53;5058190;27;20393;-50
2023/02/02 12:54:43;;;;;;;3.17;1.85;;;;;;;12.22;64.25;101027.38;5012195;27;20402;-52
2023/02/02 13:11:31;;;;;;;1.33;1.23;;;;;;;12.13;62.82;101024.75;5059944;27;20897;-51
2023/02/02 13:14:07;;;;;;;9.00;2.13;;;;;;;12.13;64.24;101019.56;5014057;28;20049;-52
2023/02/02 13:16:36;;;;;;;4.40;1.27;;;;;;;12.13;63.51;101029.94;5013997;28;20054;-54
2023/02/02 13:19:09;;;;;;;2.45;1.25;;;;;;;12.15;63.38;101033.41;5013705;28;20065;-48
2023/02/02 13:21:38;;;;;;;0.95;0.50;;;;;;;12.16;64.89;101024.78;5016653;28;20461;-47
2023/02/02 13:24:11;;;;;;;1.45;1.35;;;;;;;12.16;64.84;101029.97;5013194;28;20526;-50
2023/02/02 13:26:41;;;;;;;0.63;0.20;;;;;;;12.21;64.68;101028.25;5015174;28;20842;-52
2023/02/02 13:32:14;;;;;;;0.95;0.40;;;;;;;12.19;64.24;101014.38;5065854;27;20417;-50
2023/02/02 13:34:46;;;;;;;0.73;0.47;;;;;;;12.26;65.06;101020.50;5028785;28;20606;-49
2023/02/02 13:37:38;;;;;;;0.65;0.50;;;;;;;12.15;64.90;101023.00;5025566;28;20145;-54
2023/02/02 14:03:01;;;;;;;1.20;0.50;;;;;;;12.06;64.23;101014.31;5019555;27;20969;-51
2023/02/02 14:05:32;;;;;;;2.13;0.45;;;;;;;12.05;64.42;101015.16;5007115;28;20502;-51
2023/02/02 14:10:43;;;;;;;1.30;0.38;;;;;;;12.04;64.90;101021.19;5035980;28;20387;-49
2023/02/02 14:15:54;;;;;;;1.70;1.33;;;;;;;11.98;64.86;101015.06;5049709;28;20396;-52
2023/02/02 14:38:12;;;;;;;2.25;0.40;;;;;;;11.85;63.81;101021.94;5041355;27;20393;-50
2023/02/02 14:43:45;;;;;;;1.95;0.88;;;;;;;11.84;65.14;101018.44;5031121;28;20403;-50
2023/02/02 14:51:31;;;;;;;5.88;0.65;;;;;;;11.86;63.83;101023.66;5008171;27;20438;-50